createdAt,value
2023-03-17T10:39:12.145Z,500.00
2023-03-17T10:43:12.654Z,500.00
2023-03-17T10:47:12.670Z,400.00
2023-03-17T10:51:12.205Z,400.00
2023-03-17T10:55:12.175Z,400.00
2023-03-17T10:59:12.190Z,400.00
2023-03-17T11:03:12.133Z,400.00
2023-03-17T11:07:12.086Z,400.00
2023-03-17T11:11:12.178Z,400.00
2023-03-17T11:15:12.147Z,400.00
2023-03-17T11:19:12.172Z,507.00
2023-03-17T11:23:12.167Z,543.00
2023-03-17T11:27:11.909Z,565.00
2023-03-17T11:31:12.180Z,514.00
2023-03-17T11:35:12.170Z,506.00
2023-03-17T11:39:12.163Z,511.00
2023-03-17T11:43:12.179Z,499.00
2023-03-17T11:47:11.723Z,500.00
2023-03-17T11:51:11.673Z,613.00
2023-03-17T11:55:11.679Z,500.00
2023-03-17T11:59:11.610Z,530.00
2023-03-17T12:03:11.664Z,510.00
2023-03-17T12:07:12.179Z,498.00
2023-03-17T12:11:11.509Z,499.00
2023-03-17T12:15:11.672Z,505.00
2023-03-17T12:19:11.685Z,560.00
2023-03-17T12:23:11.525Z,563.00
2023-03-17T12:27:11.689Z,580.00
2023-03-17T12:31:12.200Z,576.00
2023-03-17T12:35:11.822Z,569.00
2023-03-17T12:39:11.920Z,569.00
2023-03-17T12:43:12.042Z,579.00
2023-03-17T12:47:12.151Z,574.00
2023-03-17T12:51:12.288Z,581.00
2023-03-17T12:55:12.458Z,578.00
2023-03-17T12:59:12.576Z,559.00
2023-03-17T13:03:13.223Z,566.00
2023-03-17T13:07:13.201Z,554.00
2023-03-17T13:11:13.191Z,554.00
2023-03-17T13:15:13.713Z,829.00
2023-03-17T13:19:13.397Z,650.00
2023-03-17T13:23:13.569Z,706.00
2023-03-17T13:27:13.745Z,741.00
2023-03-17T13:31:13.977Z,832.00
2023-03-17T13:35:14.175Z,872.00
2023-03-17T13:39:19.740Z,905.00
2023-03-17T13:43:15.332Z,912.00
2023-03-17T13:47:14.297Z,875.00
2023-03-17T13:51:15.288Z,843.00
2023-03-17T13:55:14.807Z,839.00
2023-03-17T13:59:15.222Z,828.00
2023-03-17T14:03:15.041Z,829.00
2023-03-17T14:07:15.231Z,831.00
2023-03-17T14:11:15.440Z,823.00
2023-03-17T14:15:15.648Z,795.00
2023-03-17T14:19:15.866Z,783.00
2023-03-17T14:23:16.072Z,755.00
2023-03-17T14:27:16.265Z,754.00
2023-03-17T14:31:16.491Z,715.00
2023-03-17T14:35:16.453Z,745.00
2023-03-17T14:39:16.438Z,730.00
2023-03-17T14:43:16.368Z,718.00
2023-03-17T14:47:16.328Z,695.00
2023-03-17T14:51:16.752Z,671.00
2023-03-17T14:55:16.771Z,714.00
2023-03-17T14:59:16.258Z,666.00
2023-03-17T15:03:16.274Z,714.00
2023-03-17T15:07:16.267Z,650.00
2023-03-17T15:11:16.257Z,646.00
2023-03-17T15:15:16.268Z,707.00
2023-03-17T15:19:16.066Z,658.00
2023-03-17T15:23:16.000Z,672.00
2023-03-17T15:27:15.989Z,702.00
2023-03-17T15:31:16.055Z,672.00
2023-03-17T15:35:15.898Z,635.00
2023-03-17T15:39:15.888Z,685.00
2023-03-17T15:43:15.924Z,717.00
2023-03-17T15:47:15.841Z,718.00
2023-03-17T15:51:16.025Z,590.00
2023-03-17T15:55:16.202Z,651.00
2023-03-17T15:59:16.367Z,711.00
2023-03-17T16:03:16.498Z,729.00
2023-03-17T16:07:16.628Z,772.00
2023-03-17T16:11:16.593Z,772.00
2023-03-17T16:15:22.996Z,712.00
2023-03-17T16:19:17.536Z,771.00
2023-03-17T16:23:16.493Z,746.00
2023-03-17T16:27:16.579Z,735.00
2023-03-17T16:31:16.900Z,677.00
2023-03-17T16:35:16.888Z,782.00
2023-03-17T16:39:17.079Z,741.00
2023-03-17T16:43:25.331Z,645.00
2023-03-17T16:47:18.112Z,693.00
2023-03-17T16:51:17.091Z,822.00
2023-03-17T16:55:17.043Z,823.00
2023-03-17T16:59:17.011Z,845.00
2023-03-17T17:03:17.395Z,809.00
2023-03-17T17:07:16.943Z,741.00
2023-03-17T17:11:16.932Z,667.00
2023-03-17T17:15:16.888Z,706.00
2023-03-17T17:19:16.829Z,739.00
2023-03-17T17:23:16.805Z,749.00
2023-03-17T17:27:16.773Z,747.00
2023-03-17T17:31:16.870Z,756.00
2023-03-17T17:35:16.768Z,748.00
2023-03-17T17:39:16.764Z,603.00
2023-03-17T17:43:16.758Z,694.00
2023-03-17T17:47:16.744Z,611.00
2023-03-17T17:51:16.741Z,643.00
2023-03-17T17:55:16.757Z,661.00
2023-03-17T17:59:16.790Z,652.00
2023-03-17T18:03:16.778Z,673.00
2023-03-17T18:07:16.812Z,685.00
2023-03-17T18:11:16.825Z,687.00
2023-03-17T18:15:16.870Z,668.00
2023-03-17T18:19:16.854Z,712.00
2023-03-17T18:23:16.892Z,747.00
2023-03-17T18:27:16.920Z,663.00
2023-03-17T18:31:16.956Z,695.00
2023-03-17T18:35:16.999Z,667.00
2023-03-17T18:39:17.064Z,699.00
2023-03-17T18:43:17.059Z,669.00
2023-03-17T18:47:17.101Z,672.00
2023-03-17T18:51:17.170Z,660.00
2023-03-17T18:55:17.186Z,657.00
2023-03-17T18:59:17.242Z,657.00
2023-03-17T19:03:17.346Z,660.00
2023-03-17T19:07:17.366Z,658.00
2023-03-17T19:11:17.401Z,649.00
2023-03-17T19:15:17.448Z,651.00
2023-03-17T19:19:17.489Z,665.00
2023-03-17T19:23:17.566Z,662.00
2023-03-17T19:27:17.627Z,671.00
2023-03-17T19:31:17.717Z,672.00
2023-03-17T19:35:17.754Z,674.00
2023-03-17T19:39:17.822Z,689.00
2023-03-17T19:43:32.545Z,653.00
2023-03-17T19:47:18.861Z,666.00
2023-03-17T19:51:17.830Z,648.00
2023-03-17T19:55:17.785Z,640.00
2023-03-17T19:59:17.757Z,647.00
2023-03-17T20:03:17.701Z,664.00
2023-03-17T20:07:17.744Z,656.00
2023-03-17T20:11:17.810Z,629.00
2023-03-17T20:15:17.861Z,636.00
2023-03-17T20:19:17.912Z,639.00
2023-03-17T20:23:17.982Z,631.00
2023-03-17T20:27:18.062Z,644.00
2023-03-17T20:31:18.196Z,629.00
2023-03-17T20:35:18.245Z,623.00
2023-03-17T20:39:18.324Z,629.00
2023-03-17T20:43:18.388Z,612.00
2023-03-17T20:47:18.470Z,628.00
2023-03-17T20:51:18.571Z,629.00
2023-03-17T20:55:18.685Z,603.00
2023-03-17T20:59:18.778Z,638.00
2023-03-17T21:03:18.945Z,615.00
2023-03-17T21:07:19.025Z,635.00
2023-03-17T21:11:19.115Z,628.00
2023-03-17T21:15:19.209Z,623.00
2023-03-17T21:19:19.327Z,632.00
2023-03-17T21:23:19.430Z,620.00
2023-03-17T21:27:19.544Z,632.00
2023-03-17T21:31:19.759Z,646.00
2023-03-17T21:35:19.745Z,650.00
2023-03-17T21:39:19.840Z,623.00
2023-03-17T21:43:19.954Z,636.00
2023-03-17T21:47:20.083Z,605.00
2023-03-17T21:51:20.172Z,628.00
2023-03-17T21:55:20.300Z,619.00
2023-03-17T21:59:20.442Z,619.00
2023-03-17T22:03:20.581Z,623.00
2023-03-17T22:07:20.628Z,627.00
2023-03-17T22:11:20.789Z,604.00
